sensor_id;sensor_type;location;lat;lon;timestamp;pressure;altitude;pressure_sealevel;temperature
40047;BMP280;31510;48.122;11.576;2022-09-21T00:01:07;96375.75;;;9.24
40047;BMP280;31510;48.122;11.576;2022-09-21T00:03:33;96378.81;;;9.22
40047;BMP280;31510;48.122;11.576;2022-09-21T00:06:07;96383.13;;;9.16
40047;BMP280;31510;48.122;11.576;2022-09-21T00:08:33;96382.34;;;9.16
40047;BMP280;31510;48.122;11.576;2022-09-21T00:10:58;96384.34;;;9.12
40047;BMP280;31510;48.122;11.576;2022-09-21T00:13:25;96378.63;;;9.14
40047;BMP280;31510;48.122;11.576;2022-09-21T00:15:55;96386.59;;;9.14
40047;BMP280;31510;48.122;11.576;2022-09-21T00:18:21;96379.44;;;9.11
40047;BMP280;31510;48.122;11.576;2022-09-21T00:20:47;96380.25;;;9.08
40047;BMP280;31510;48.122;11.576;2022-09-21T00:23:12;96381.75;;;9.09
40047;BMP280;31510;48.122;11.576;2022-09-21T00:25:38;96378.44;;;9.05
40047;BMP280;31510;48.122;11.576;2022-09-21T00:28:03;96380.06;;;8.99
40047;BMP280;31510;48.122;11.576;2022-09-21T00:30:28;96381.22;;;8.98
40047;BMP280;31510;48.122;11.576;2022-09-21T00:32:54;96383.16;;;8.97
40047;BMP280;31510;48.122;11.576;2022-09-21T00:35:19;96383.63;;;8.92
40047;BMP280;31510;48.122;11.576;2022-09-21T00:37:44;96387.50;;;8.88
40047;BMP280;31510;48.122;11.576;2022-09-21T00:40:10;96386.09;;;8.83
40047;BMP280;31510;48.122;11.576;2022-09-21T00:42:35;96392.16;;;8.84
40047;BMP280;31510;48.122;11.576;2022-09-21T00:45:02;96390.22;;;8.84
40047;BMP280;31510;48.122;11.576;2022-09-21T00:47:39;96388.75;;;8.83
40047;BMP280;31510;48.122;11.576;2022-09-21T00:50:08;96380.44;;;8.81
40047;BMP280;31510;48.122;11.576;2022-09-21T00:52:38;96386.56;;;8.78
40047;BMP280;31510;48.122;11.576;2022-09-21T00:55:10;96385.88;;;8.75
40047;BMP280;31510;48.122;11.576;2022-09-21T00:57:39;96387.44;;;8.72
40047;BMP280;31510;48.122;11.576;2022-09-21T01:00:07;96379.19;;;8.67
40047;BMP280;31510;48.122;11.576;2022-09-21T01:02:34;96384.84;;;8.69
40047;BMP280;31510;48.122;11.576;2022-09-21T01:05:02;96379.13;;;8.70
40047;BMP280;31510;48.122;11.576;2022-09-21T01:07:29;96378.38;;;8.70
40047;BMP280;31510;48.122;11.576;2022-09-21T01:09:59;96376.31;;;8.58
40047;BMP280;31510;48.122;11.576;2022-09-21T01:15:18;96384.13;;;8.26
40047;BMP280;31510;48.122;11.576;2022-09-21T01:17:51;96385.88;;;8.13
40047;BMP280;31510;48.122;11.576;2022-09-21T01:21:01;96373.81;;;8.05
40047;BMP280;31510;48.122;11.576;2022-09-21T01:23:47;96378.50;;;7.98
40047;BMP280;31510;48.122;11.576;2022-09-21T01:29:25;96382.09;;;8.11
40047;BMP280;31510;48.122;11.576;2022-09-21T01:34:32;96380.03;;;8.22
40047;BMP280;31510;48.122;11.576;2022-09-21T01:37:02;96375.47;;;8.22
40047;BMP280;31510;48.122;11.576;2022-09-21T01:39:30;96376.63;;;8.21
40047;BMP280;31510;48.122;11.576;2022-09-21T01:41:58;96380.84;;;8.19
40047;BMP280;31510;48.122;11.576;2022-09-21T01:44:27;96382.00;;;8.18
40047;BMP280;31510;48.122;11.576;2022-09-21T01:46:59;96387.25;;;8.21
40047;BMP280;31510;48.122;11.576;2022-09-21T01:49:30;96381.59;;;8.19
40047;BMP280;31510;48.122;11.576;2022-09-21T01:52:01;96380.44;;;8.20
40047;BMP280;31510;48.122;11.576;2022-09-21T01:54:36;96378.13;;;8.22
40047;BMP280;31510;48.122;11.576;2022-09-21T02:00:01;96378.19;;;8.19
40047;BMP280;31510;48.122;11.576;2022-09-21T02:02:36;96386.56;;;8.17
40047;BMP280;31510;48.122;11.576;2022-09-21T02:05:04;96389.22;;;8.17
40047;BMP280;31510;48.122;11.576;2022-09-21T02:07:31;96384.31;;;8.16
40047;BMP280;31510;48.122;11.576;2022-09-21T02:09:58;96382.81;;;8.15
40047;BMP280;31510;48.122;11.576;2022-09-21T02:12:24;96373.69;;;8.16
40047;BMP280;31510;48.122;11.576;2022-09-21T02:14:51;96387.31;;;8.18
40047;BMP280;31510;48.122;11.576;2022-09-21T02:25:43;96370.53;;;7.98
40047;BMP280;31510;48.122;11.576;2022-09-21T02:28:23;96378.78;;;7.81
40047;BMP280;31510;48.122;11.576;2022-09-21T02:30:56;96375.84;;;7.75
40047;BMP280;31510;48.122;11.576;2022-09-21T02:33:41;96391.31;;;7.80
40047;BMP280;31510;48.122;11.576;2022-09-21T02:36:18;96242.06;;;6.75
40047;BMP280;31510;48.122;11.576;2022-09-21T02:38:49;96387.06;;;7.60
40047;BMP280;31510;48.122;11.576;2022-09-21T02:44:22;96388.88;;;7.40
40047;BMP280;31510;48.122;11.576;2022-09-21T02:46:52;96392.38;;;7.34
40047;BMP280;31510;48.122;11.576;2022-09-21T02:49:23;96389.72;;;7.34
40047;BMP280;31510;48.122;11.576;2022-09-21T02:51:52;96387.34;;;7.43
40047;BMP280;31510;48.122;11.576;2022-09-21T02:54:23;96391.41;;;7.51
40047;BMP280;31510;48.122;11.576;2022-09-21T02:56:51;96392.44;;;7.56
40047;BMP280;31510;48.122;11.576;2022-09-21T02:59:18;96390.50;;;7.60
40047;BMP280;31510;48.122;11.576;2022-09-21T03:01:46;96385.13;;;7.64
40047;BMP280;31510;48.122;11.576;2022-09-21T03:04:12;96383.22;;;7.64
40047;BMP280;31510;48.122;11.576;2022-09-21T03:06:37;96385.81;;;7.68
40047;BMP280;31510;48.122;11.576;2022-09-21T03:09:02;96376.00;;;7.65
40047;BMP280;31510;48.122;11.576;2022-09-21T03:11:28;96389.22;;;7.68
40047;BMP280;31510;48.122;11.576;2022-09-21T03:13:53;96385.78;;;7.71
40047;BMP280;31510;48.122;11.576;2022-09-21T03:16:18;96392.56;;;7.72
40047;BMP280;31510;48.122;11.576;2022-09-21T03:18:44;96393.78;;;7.68
40047;BMP280;31510;48.122;11.576;2022-09-21T03:21:10;96399.94;;;7.61
40047;BMP280;31510;48.122;11.576;2022-09-21T03:23:36;96391.97;;;7.61
40047;BMP280;31510;48.122;11.576;2022-09-21T03:26:01;96393.09;;;7.64
40047;BMP280;31510;48.122;11.576;2022-09-21T03:28:27;96392.63;;;7.69
40047;BMP280;31510;48.122;11.576;2022-09-21T03:30:52;96400.97;;;7.71
40047;BMP280;31510;48.122;11.576;2022-09-21T03:33:20;96399.78;;;7.72
40047;BMP280;31510;48.122;11.576;2022-09-21T03:35:48;96396.78;;;7.70
40047;BMP280;31510;48.122;11.576;2022-09-21T03:38:14;96393.00;;;7.71
40047;BMP280;31510;48.122;11.576;2022-09-21T03:40:44;96395.38;;;7.62
40047;BMP280;31510;48.122;11.576;2022-09-21T03:43:10;96391.78;;;7.49
40047;BMP280;31510;48.122;11.576;2022-09-21T03:45:35;96396.41;;;7.45
40047;BMP280;31510;48.122;11.576;2022-09-21T03:48:02;96390.00;;;7.43
40047;BMP280;31510;48.122;11.576;2022-09-21T03:50:28;96391.16;;;7.42
40047;BMP280;31510;48.122;11.576;2022-09-21T03:52:55;96390.00;;;7.43
40047;BMP280;31510;48.122;11.576;2022-09-21T03:55:20;96394.50;;;7.46
40047;BMP280;31510;48.122;11.576;2022-09-21T03:57:45;96391.03;;;7.49
40047;BMP280;31510;48.122;11.576;2022-09-21T04:00:11;96386.88;;;7.48
40047;BMP280;31510;48.122;11.576;2022-09-21T04:02:37;96395.19;;;7.50
40047;BMP280;31510;48.122;11.576;2022-09-21T04:05:10;96389.81;;;7.53
40047;BMP280;31510;48.122;11.576;2022-09-21T04:07:39;96395.56;;;7.52
40047;BMP280;31510;48.122;11.576;2022-09-21T04:10:07;96402.91;;;7.41
40047;BMP280;31510;48.122;11.576;2022-09-21T04:12:33;96404.50;;;7.35
40047;BMP280;31510;48.122;11.576;2022-09-21T04:14:59;96402.00;;;7.24
40047;BMP280;31510;48.122;11.576;2022-09-21T04:17:25;96405.91;;;7.16
40047;BMP280;31510;48.122;11.576;2022-09-21T04:19:51;96406.22;;;7.22
40047;BMP280;31510;48.122;11.576;2022-09-21T04:22:16;96406.88;;;7.29
40047;BMP280;31510;48.122;11.576;2022-09-21T04:24:43;96409.47;;;7.33
40047;BMP280;31510;48.122;11.576;2022-09-21T04:27:09;96404.56;;;7.31
40047;BMP280;31510;48.122;11.576;2022-09-21T04:29:35;96409.91;;;7.28
40047;BMP280;31510;48.122;11.576;2022-09-21T04:32:00;96403.84;;;7.27
40047;BMP280;31510;48.122;11.576;2022-09-21T04:34:26;96406.13;;;7.29
40047;BMP280;31510;48.122;11.576;2022-09-21T04:36:51;96403.81;;;7.31
40047;BMP280;31510;48.122;11.576;2022-09-21T04:39:19;96410.66;;;7.28
40047;BMP280;31510;48.122;11.576;2022-09-21T04:41:44;96413.72;;;7.27
40047;BMP280;31510;48.122;11.576;2022-09-21T04:44:09;96408.81;;;7.25
40047;BMP280;31510;48.122;11.576;2022-09-21T04:46:35;96411.41;;;7.29
40047;BMP280;31510;48.122;11.576;2022-09-21T04:49:00;96412.13;;;7.33
40047;BMP280;31510;48.122;11.576;2022-09-21T04:51:25;96410.94;;;7.34
40047;BMP280;31510;48.122;11.576;2022-09-21T04:53:51;96417.06;;;7.31
40047;BMP280;31510;48.122;11.576;2022-09-21T04:56:16;96432.34;;;7.23
40047;BMP280;31510;48.122;11.576;2022-09-21T04:58:42;96429.00;;;7.16
40047;BMP280;31510;48.122;11.576;2022-09-21T05:01:08;96433.25;;;7.10
40047;BMP280;31510;48.122;11.576;2022-09-21T05:03:33;96427.25;;;7.06
40047;BMP280;31510;48.122;11.576;2022-09-21T05:05:59;96431.50;;;6.97
40047;BMP280;31510;48.122;11.576;2022-09-21T05:08:25;96439.16;;;6.91
40047;BMP280;31510;48.122;11.576;2022-09-21T05:11:12;96445.63;;;6.90
40047;BMP280;31510;48.122;11.576;2022-09-21T05:13:40;96456.31;;;6.83
40047;BMP280;31510;48.122;11.576;2022-09-21T05:16:08;96452.44;;;6.88
40047;BMP280;31510;48.122;11.576;2022-09-21T05:18:34;96452.41;;;6.91
40047;BMP280;31510;48.122;11.576;2022-09-21T05:21:00;96457.69;;;6.95
40047;BMP280;31510;48.122;11.576;2022-09-21T05:23:26;96446.28;;;6.98
40047;BMP280;31510;48.122;11.576;2022-09-21T05:25:54;96451.94;;;7.00
40047;BMP280;31510;48.122;11.576;2022-09-21T05:28:19;96452.06;;;6.89
40047;BMP280;31510;48.122;11.576;2022-09-21T05:30:49;96460.44;;;6.84
40047;BMP280;31510;48.122;11.576;2022-09-21T05:33:19;96453.31;;;6.81
40047;BMP280;31510;48.122;11.576;2022-09-21T05:38:20;96459.81;;;6.74
40047;BMP280;31510;48.122;11.576;2022-09-21T05:40:45;96456.34;;;6.80
40047;BMP280;31510;48.122;11.576;2022-09-21T05:43:18;96457.06;;;6.84
40047;BMP280;31510;48.122;11.576;2022-09-21T05:45:45;96453.22;;;6.88
40047;BMP280;31510;48.122;11.576;2022-09-21T05:51:09;96453.06;;;6.99
40047;BMP280;31510;48.122;11.576;2022-09-21T05:59:04;96447.09;;;7.24
40047;BMP280;31510;48.122;11.576;2022-09-21T06:04:18;96459.75;;;7.43
40047;BMP280;31510;48.122;11.576;2022-09-21T06:06:43;96451.69;;;7.50
40047;BMP280;31510;48.122;11.576;2022-09-21T06:09:09;96455.00;;;7.57
40047;BMP280;31510;48.122;11.576;2022-09-21T06:11:34;96450.72;;;7.63
40047;BMP280;31510;48.122;11.576;2022-09-21T06:14:00;96457.84;;;7.70
40047;BMP280;31510;48.122;11.576;2022-09-21T06:16:35;96458.94;;;7.72
40047;BMP280;31510;48.122;11.576;2022-09-21T06:19:00;96455.09;;;7.77
40047;BMP280;31510;48.122;11.576;2022-09-21T06:21:25;96464.91;;;7.80
40047;BMP280;31510;48.122;11.576;2022-09-21T06:23:50;96462.25;;;7.80
40047;BMP280;31510;48.122;11.576;2022-09-21T06:26:16;96468.66;;;7.82
40047;BMP280;31510;48.122;11.576;2022-09-21T06:28:41;96472.06;;;7.83
40047;BMP280;31510;48.122;11.576;2022-09-21T06:31:07;96463.31;;;7.86
40047;BMP280;31510;48.122;11.576;2022-09-21T06:33:32;96470.13;;;7.87
40047;BMP280;31510;48.122;11.576;2022-09-21T06:35:59;96473.44;;;7.94
40047;BMP280;31510;48.122;11.576;2022-09-21T06:38:27;96476.38;;;7.99
40047;BMP280;31510;48.122;11.576;2022-09-21T06:40:53;96467.56;;;8.06
40047;BMP280;31510;48.122;11.576;2022-09-21T06:43:19;96466.72;;;8.12
40047;BMP280;31510;48.122;11.576;2022-09-21T06:45:54;96476.78;;;8.24
40047;BMP280;31510;48.122;11.576;2022-09-21T06:48:20;96481.19;;;8.34
40047;BMP280;31510;48.122;11.576;2022-09-21T06:50:46;96474.19;;;8.43
40047;BMP280;31510;48.122;11.576;2022-09-21T06:53:11;96471.34;;;8.54
40047;BMP280;31510;48.122;11.576;2022-09-21T06:55:38;96470.88;;;8.59
40047;BMP280;31510;48.122;11.576;2022-09-21T06:58:04;96474.97;;;8.63
40047;BMP280;31510;48.122;11.576;2022-09-21T07:00:30;96476.34;;;8.71
40047;BMP280;31510;48.122;11.576;2022-09-21T07:02:56;96477.72;;;8.79
40047;BMP280;31510;48.122;11.576;2022-09-21T07:05:21;96482.91;;;8.86
40047;BMP280;31510;48.122;11.576;2022-09-21T07:07:46;96474.81;;;8.93
40047;BMP280;31510;48.122;11.576;2022-09-21T07:10:12;96483.81;;;8.99
40047;BMP280;31510;48.122;11.576;2022-09-21T07:12:37;96482.19;;;9.05
40047;BMP280;31510;48.122;11.576;2022-09-21T07:15:03;96479.06;;;9.10
40047;BMP280;31510;48.122;11.576;2022-09-21T07:17:33;96477.41;;;9.15
40047;BMP280;31510;48.122;11.576;2022-09-21T07:19:59;96476.53;;;9.22
40047;BMP280;31510;48.122;11.576;2022-09-21T07:22:27;96475.63;;;9.28
40047;BMP280;31510;48.122;11.576;2022-09-21T07:24:52;96480.06;;;9.35
40047;BMP280;31510;48.122;11.576;2022-09-21T07:27:18;96473.84;;;9.41
40047;BMP280;31510;48.122;11.576;2022-09-21T07:29:43;96478.19;;;9.51
40047;BMP280;31510;48.122;11.576;2022-09-21T07:32:11;96478.72;;;9.62
40047;BMP280;31510;48.122;11.576;2022-09-21T07:34:36;96485.06;;;9.68
40047;BMP280;31510;48.122;11.576;2022-09-21T07:37:02;96481.50;;;9.74
40047;BMP280;31510;48.122;11.576;2022-09-21T07:39:28;96476.44;;;9.80
40047;BMP280;31510;48.122;11.576;2022-09-21T07:41:53;96483.94;;;9.85
40047;BMP280;31510;48.122;11.576;2022-09-21T07:44:18;96484.56;;;9.92
40047;BMP280;31510;48.122;11.576;2022-09-21T07:46:47;96488.22;;;9.98
40047;BMP280;31510;48.122;11.576;2022-09-21T07:49:13;96486.22;;;10.02
40047;BMP280;31510;48.122;11.576;2022-09-21T07:51:38;96481.94;;;10.08
40047;BMP280;31510;48.122;11.576;2022-09-21T07:54:03;96487.84;;;10.15
40047;BMP280;31510;48.122;11.576;2022-09-21T07:56:29;96486.25;;;10.18
40047;BMP280;31510;48.122;11.576;2022-09-21T07:58:55;96479.59;;;10.26
40047;BMP280;31510;48.122;11.576;2022-09-21T08:01:37;96486.66;;;10.32
40047;BMP280;31510;48.122;11.576;2022-09-21T08:04:04;96483.81;;;10.39
40047;BMP280;31510;48.122;11.576;2022-09-21T08:06:31;96489.31;;;10.48
40047;BMP280;31510;48.122;11.576;2022-09-21T08:09:00;96479.25;;;10.55
40047;BMP280;31510;48.122;11.576;2022-09-21T08:11:28;96481.22;;;10.67
40047;BMP280;31510;48.122;11.576;2022-09-21T08:13:59;96479.13;;;10.75
40047;BMP280;31510;48.122;11.576;2022-09-21T08:16:25;96479.78;;;10.78
40047;BMP280;31510;48.122;11.576;2022-09-21T08:18:52;96477.78;;;10.82
40047;BMP280;31510;48.122;11.576;2022-09-21T08:21:17;96478.75;;;10.88
40047;BMP280;31510;48.122;11.576;2022-09-21T08:23:44;96480.16;;;10.93
40047;BMP280;31510;48.122;11.576;2022-09-21T08:26:11;96485.41;;;10.96
40047;BMP280;31510;48.122;11.576;2022-09-21T08:28:50;96477.41;;;10.96
40047;BMP280;31510;48.122;11.576;2022-09-21T08:31:20;96484.91;;;11.01
40047;BMP280;31510;48.122;11.576;2022-09-21T08:33:47;96494.22;;;11.09
40047;BMP280;31510;48.122;11.576;2022-09-21T08:36:13;96484.53;;;11.15
40047;BMP280;31510;48.122;11.576;2022-09-21T08:38:39;96479.00;;;11.22
40047;BMP280;31510;48.122;11.576;2022-09-21T08:43:58;96485.53;;;11.33
40047;BMP280;31510;48.122;11.576;2022-09-21T08:46:27;96489.50;;;11.41
40047;BMP280;31510;48.122;11.576;2022-09-21T08:49:01;96489.50;;;11.41
40047;BMP280;31510;48.122;11.576;2022-09-21T08:51:31;96484.91;;;11.42
40047;BMP280;31510;48.122;11.576;2022-09-21T08:57:03;96484.34;;;11.50
40047;BMP280;31510;48.122;11.576;2022-09-21T08:59:28;96491.06;;;11.55
40047;BMP280;31510;48.122;11.576;2022-09-21T09:01:59;96496.19;;;11.61
40047;BMP280;31510;48.122;11.576;2022-09-21T09:04:51;96480.06;;;11.65
40047;BMP280;31510;48.122;11.576;2022-09-21T09:12:53;96484.88;;;11.70
40047;BMP280;31510;48.122;11.576;2022-09-21T09:15:46;96478.06;;;11.81
40047;BMP280;31510;48.122;11.576;2022-09-21T09:18:20;96485.66;;;11.83
40047;BMP280;31510;48.122;11.576;2022-09-21T09:20:53;96479.13;;;11.84
40047;BMP280;31510;48.122;11.576;2022-09-21T09:23:32;96472.91;;;11.87
40047;BMP280;31510;48.122;11.576;2022-09-21T09:27:05;96475.06;;;11.92
40047;BMP280;31510;48.122;11.576;2022-09-21T09:29:00;96481.16;;;11.92
40047;BMP280;31510;48.122;11.576;2022-09-21T09:31:30;96485.34;;;11.93
40047;BMP280;31510;48.122;11.576;2022-09-21T09:36:35;96480.19;;;11.98
40047;BMP280;31510;48.122;11.576;2022-09-21T09:39:09;96484.59;;;12.05
40047;BMP280;31510;48.122;11.576;2022-09-21T09:52:22;96467.56;;;11.99
40047;BMP280;31510;48.122;11.576;2022-09-21T09:54:47;96454.31;;;12.08
40047;BMP280;31510;48.122;11.576;2022-09-21T09:57:14;96456.25;;;12.07
40047;BMP280;31510;48.122;11.576;2022-09-21T09:59:47;96450.03;;;12.10
40047;BMP280;31510;48.122;11.576;2022-09-21T10:02:26;96447.25;;;12.14
40047;BMP280;31510;48.122;11.576;2022-09-21T10:05:03;96450.56;;;12.18
40047;BMP280;31510;48.122;11.576;2022-09-21T10:07:38;96444.69;;;12.23
40047;BMP280;31510;48.122;11.576;2022-09-21T10:10:33;96443.72;;;12.29
40047;BMP280;31510;48.122;11.576;2022-09-21T10:15:30;96442.59;;;12.51
40047;BMP280;31510;48.122;11.576;2022-09-21T10:20:36;96428.44;;;12.63
40047;BMP280;31510;48.122;11.576;2022-09-21T10:23:02;96433.66;;;12.67
40047;BMP280;31510;48.122;11.576;2022-09-21T10:25:29;96436.66;;;12.69
40047;BMP280;31510;48.122;11.576;2022-09-21T10:27:55;96426.50;;;12.64
40047;BMP280;31510;48.122;11.576;2022-09-21T10:30:33;96422.66;;;12.65
40047;BMP280;31510;48.122;11.576;2022-09-21T10:32:59;96421.03;;;12.67
40047;BMP280;31510;48.122;11.576;2022-09-21T10:35:26;96423.34;;;12.77
40047;BMP280;31510;48.122;11.576;2022-09-21T10:38:15;96421.63;;;12.83
40047;BMP280;31510;48.122;11.576;2022-09-21T10:40:42;96410.25;;;12.92
40047;BMP280;31510;48.122;11.576;2022-09-21T10:43:22;96411.31;;;12.94
40047;BMP280;31510;48.122;11.576;2022-09-21T10:45:55;96404.34;;;12.97
40047;BMP280;31510;48.122;11.576;2022-09-21T10:48:22;96409.75;;;13.06
40047;BMP280;31510;48.122;11.576;2022-09-21T10:50:49;96412.47;;;13.15
40047;BMP280;31510;48.122;11.576;2022-09-21T10:53:23;96414.59;;;13.19
40047;BMP280;31510;48.122;11.576;2022-09-21T10:58:18;96419.16;;;13.10
40047;BMP280;31510;48.122;11.576;2022-09-21T11:00:46;96412.31;;;13.09
40047;BMP280;31510;48.122;11.576;2022-09-21T11:06:18;96410.06;;;13.08
40047;BMP280;31510;48.122;11.576;2022-09-21T11:08:53;96409.56;;;13.00
40047;BMP280;31510;48.122;11.576;2022-09-21T11:17:08;96404.88;;;12.92
40047;BMP280;31510;48.122;11.576;2022-09-21T11:20:14;96403.91;;;12.98
40047;BMP280;31510;48.122;11.576;2022-09-21T11:22:53;96398.59;;;13.07
40047;BMP280;31510;48.122;11.576;2022-09-21T11:26:00;96392.13;;;13.17
40047;BMP280;31510;48.122;11.576;2022-09-21T11:31:30;96391.47;;;13.34
40047;BMP280;31510;48.122;11.576;2022-09-21T11:34:11;96394.78;;;13.38
40047;BMP280;31510;48.122;11.576;2022-09-21T11:37:22;96395.94;;;13.37
40047;BMP280;31510;48.122;11.576;2022-09-21T11:45:25;96376.19;;;13.44
40047;BMP280;31510;48.122;11.576;2022-09-21T11:48:07;96377.09;;;13.50
40047;BMP280;31510;48.122;11.576;2022-09-21T11:50:44;96372.22;;;13.57
40047;BMP280;31510;48.122;11.576;2022-09-21T11:56:00;96367.22;;;13.68
40047;BMP280;31510;48.122;11.576;2022-09-21T11:58:37;96367.84;;;13.72
40047;BMP280;31510;48.122;11.576;2022-09-21T12:11:45;96353.59;;;13.93
40047;BMP280;31510;48.122;11.576;2022-09-21T12:14:35;96355.66;;;13.97
40047;BMP280;31510;48.122;11.576;2022-09-21T12:19:58;96351.56;;;14.14
40047;BMP280;31510;48.122;11.576;2022-09-21T12:22:29;96345.47;;;14.14
40047;BMP280;31510;48.122;11.576;2022-09-21T12:25:00;96350.53;;;14.12
40047;BMP280;31510;48.122;11.576;2022-09-21T12:27:35;96344.25;;;14.06
40047;BMP280;31510;48.122;11.576;2022-09-21T12:30:09;96339.34;;;14.04
40047;BMP280;31510;48.122;11.576;2022-09-21T12:35:36;96343.25;;;14.12
40047;BMP280;31510;48.122;11.576;2022-09-21T12:38:25;96332.50;;;14.12
40047;BMP280;31510;48.122;11.576;2022-09-21T12:43:59;96327.00;;;14.25
40047;BMP280;31510;48.122;11.576;2022-09-21T12:46:33;96331.63;;;14.24
40047;BMP280;31510;48.122;11.576;2022-09-21T12:49:04;96324.78;;;14.23
40047;BMP280;31510;48.122;11.576;2022-09-21T12:51:35;96319.09;;;14.21
40047;BMP280;31510;48.122;11.576;2022-09-21T12:54:14;96325.19;;;14.13
40047;BMP280;31510;48.122;11.576;2022-09-21T12:56:50;96329.81;;;14.03
40047;BMP280;31510;48.122;11.576;2022-09-21T13:04:52;96325.34;;;14.09
40047;BMP280;31510;48.122;11.576;2022-09-21T13:09:54;96321.47;;;14.10
40047;BMP280;31510;48.122;11.576;2022-09-21T13:12:23;96321.03;;;14.12
40047;BMP280;31510;48.122;11.576;2022-09-21T13:14:59;96327.44;;;14.14
40047;BMP280;31510;48.122;11.576;2022-09-21T13:17:30;96312.38;;;14.17
40047;BMP280;31510;48.122;11.576;2022-09-21T13:20:14;96316.13;;;14.19
40047;BMP280;31510;48.122;11.576;2022-09-21T13:22:41;96317.94;;;14.22
40047;BMP280;31510;48.122;11.576;2022-09-21T13:25:24;96311.66;;;14.25
40047;BMP280;31510;48.122;11.576;2022-09-21T13:33:36;96308.22;;;14.16
40047;BMP280;31510;48.122;11.576;2022-09-21T13:36:10;96306.72;;;14.15
40047;BMP280;31510;48.122;11.576;2022-09-21T13:44:18;96300.31;;;14.12
40047;BMP280;31510;48.122;11.576;2022-09-21T13:46:50;96291.38;;;14.06
40047;BMP280;31510;48.122;11.576;2022-09-21T13:49:24;96296.44;;;14.04
40047;BMP280;31510;48.122;11.576;2022-09-21T13:52:06;96293.44;;;14.02
40047;BMP280;31510;48.122;11.576;2022-09-21T13:54:36;96288.50;;;14.01
40047;BMP280;31510;48.122;11.576;2022-09-21T13:57:37;96288.50;;;14.01
40047;BMP280;31510;48.122;11.576;2022-09-21T14:08:04;96284.22;;;14.03
40047;BMP280;31510;48.122;11.576;2022-09-21T14:10:33;96278.53;;;14.01
40047;BMP280;31510;48.122;11.576;2022-09-21T14:13:01;96286.59;;;14.01
40047;BMP280;31510;48.122;11.576;2022-09-21T14:15:36;96273.94;;;14.02
40047;BMP280;31510;48.122;11.576;2022-09-21T14:18:17;96280.94;;;13.99
40047;BMP280;31510;48.122;11.576;2022-09-21T14:23:32;96274.94;;;13.95
40047;BMP280;31510;48.122;11.576;2022-09-21T14:25:58;96278.81;;;13.95
40047;BMP280;31510;48.122;11.576;2022-09-21T14:28:36;96271.53;;;13.95
40047;BMP280;31510;48.122;11.576;2022-09-21T14:31:15;96280.81;;;14.03
40047;BMP280;31510;48.122;11.576;2022-09-21T14:33:47;96278.25;;;13.99
40047;BMP280;31510;48.122;11.576;2022-09-21T14:36:21;96280.94;;;13.99
40047;BMP280;31510;48.122;11.576;2022-09-21T14:38:52;96273.75;;;13.96
40047;BMP280;31510;48.122;11.576;2022-09-21T14:41:22;96284.94;;;13.95
40047;BMP280;31510;48.122;11.576;2022-09-21T14:43:53;96276.28;;;13.91
40047;BMP280;31510;48.122;11.576;2022-09-21T14:59:46;96268.53;;;13.84
40047;BMP280;31510;48.122;11.576;2022-09-21T15:02:18;96266.28;;;13.83
40047;BMP280;31510;48.122;11.576;2022-09-21T15:07:39;96256.00;;;13.81
40047;BMP280;31510;48.122;11.576;2022-09-21T15:10:34;96268.81;;;13.77
40047;BMP280;31510;48.122;11.576;2022-09-21T15:13:48;96258.25;;;13.74
40047;BMP280;31510;48.122;11.576;2022-09-21T15:16:24;96257.06;;;13.75
40047;BMP280;31510;48.122;11.576;2022-09-21T15:19:01;96259.28;;;13.76
40047;BMP280;31510;48.122;11.576;2022-09-21T15:21:30;96254.22;;;13.78
40047;BMP280;31510;48.122;11.576;2022-09-21T15:23:57;96245.28;;;13.81
40047;BMP280;31510;48.122;11.576;2022-09-21T15:26:28;96256.00;;;13.81
40047;BMP280;31510;48.122;11.576;2022-09-21T15:28:57;96257.66;;;13.79
40047;BMP280;31510;48.122;11.576;2022-09-21T15:31:23;96254.97;;;13.79
40047;BMP280;31510;48.122;11.576;2022-09-21T15:33:50;96260.03;;;13.77
40047;BMP280;31510;48.122;11.576;2022-09-21T15:36:24;96258.53;;;13.76
40047;BMP280;31510;48.122;11.576;2022-09-21T15:38:51;96251.09;;;13.71
40047;BMP280;31510;48.122;11.576;2022-09-21T15:41:44;96262.84;;;13.64
40047;BMP280;31510;48.122;11.576;2022-09-21T15:44:23;96251.81;;;13.62
40047;BMP280;31510;48.122;11.576;2022-09-21T15:46:51;96249.88;;;13.63
40047;BMP280;31510;48.122;11.576;2022-09-21T15:49:21;96247.06;;;13.66
40047;BMP280;31510;48.122;11.576;2022-09-21T15:51:54;96252.13;;;13.64
40047;BMP280;31510;48.122;11.576;2022-09-21T15:54:59;96245.72;;;13.62
40047;BMP280;31510;48.122;11.576;2022-09-21T15:57:30;96251.81;;;13.62
40047;BMP280;31510;48.122;11.576;2022-09-21T15:59:59;96253.44;;;13.60
40047;BMP280;31510;48.122;11.576;2022-09-21T16:02:33;96258.06;;;13.59
40047;BMP280;31510;48.122;11.576;2022-09-21T16:04:58;96258.22;;;13.56
40047;BMP280;31510;48.122;11.576;2022-09-21T16:07:32;96265.94;;;13.54
40047;BMP280;31510;48.122;11.576;2022-09-21T16:09:57;96268.00;;;13.50
40047;BMP280;31510;48.122;11.576;2022-09-21T16:12:42;96268.31;;;13.43
40047;BMP280;31510;48.122;11.576;2022-09-21T16:15:16;96267.22;;;13.41
40047;BMP280;31510;48.122;11.576;2022-09-21T16:18:03;96271.25;;;13.36
40047;BMP280;31510;48.122;11.576;2022-09-21T16:20:46;96279.44;;;13.33
40047;BMP280;31510;48.122;11.576;2022-09-21T16:23:22;96275.97;;;13.32
40047;BMP280;31510;48.122;11.576;2022-09-21T16:25:55;96283.41;;;13.28
40047;BMP280;31510;48.122;11.576;2022-09-21T16:28:39;96276.72;;;13.24
40047;BMP280;31510;48.122;11.576;2022-09-21T16:31:34;96272.66;;;13.19
40047;BMP280;31510;48.122;11.576;2022-09-21T16:34:18;96279.66;;;13.17
40047;BMP280;31510;48.122;11.576;2022-09-21T16:36:47;96283.66;;;13.13
40047;BMP280;31510;48.122;11.576;2022-09-21T16:39:14;96279.63;;;13.08
40047;BMP280;31510;48.122;11.576;2022-09-21T16:41:46;96294.91;;;13.08
40047;BMP280;31510;48.122;11.576;2022-09-21T16:44:14;96288.53;;;13.05
40047;BMP280;31510;48.122;11.576;2022-09-21T16:46:43;96283.59;;;13.04
40047;BMP280;31510;48.122;11.576;2022-09-21T16:49:12;96288.22;;;13.03
40047;BMP280;31510;48.122;11.576;2022-09-21T16:51:42;96300.84;;;13.03
40047;BMP280;31510;48.122;11.576;2022-09-21T16:54:08;96293.72;;;13.00
40047;BMP280;31510;48.122;11.576;2022-09-21T16:56:33;96297.25;;;12.97